createdAt,value
2023-02-13T00:00:58.143Z,7.00
2023-02-13T00:07:29.443Z,7.00
2023-02-13T00:10:27.436Z,7.00
2023-02-13T00:17:20.565Z,7.00
2023-02-13T00:20:28.429Z,6.90
2023-02-13T00:23:07.539Z,6.90
2023-02-13T00:33:29.875Z,6.90
2023-02-13T00:36:22.567Z,6.90
2023-02-13T00:42:54.687Z,6.90
2023-02-13T00:49:34.733Z,6.80
2023-02-13T00:55:53.274Z,6.80
2023-02-13T00:59:18.965Z,6.80
2023-02-13T01:02:01.563Z,6.80
2023-02-13T01:04:52.483Z,6.80
2023-02-13T01:11:12.438Z,6.80
2023-02-13T01:17:50.231Z,6.70
2023-02-13T01:20:20.802Z,6.70
2023-02-13T01:23:52.872Z,6.70
2023-02-13T01:26:28.937Z,6.70
2023-02-13T01:29:01.512Z,6.70
2023-02-13T01:31:32.799Z,6.60
2023-02-13T01:34:04.702Z,6.70
2023-02-13T01:36:36.475Z,6.60
2023-02-13T01:39:15.740Z,6.70
2023-02-13T01:41:50.074Z,6.70
2023-02-13T01:45:24.790Z,6.70
2023-02-13T01:48:00.500Z,6.70
2023-02-13T01:50:40.879Z,6.70
2023-02-13T01:53:33.375Z,6.70
2023-02-13T01:56:42.081Z,6.70
2023-02-13T01:59:17.292Z,6.70
2023-02-13T02:08:35.373Z,6.70
2023-02-13T02:11:38.654Z,6.70
2023-02-13T02:14:11.266Z,6.60
2023-02-13T02:16:46.821Z,6.70
2023-02-13T02:19:28.876Z,6.70
2023-02-13T02:22:36.496Z,6.70
2023-02-13T02:25:58.833Z,6.70
2023-02-13T02:28:48.312Z,6.80
2023-02-13T02:31:58.128Z,6.70
2023-02-13T02:34:39.668Z,6.70
2023-02-13T02:37:22.817Z,6.70
2023-02-13T02:40:04.779Z,6.70
2023-02-13T02:42:42.766Z,6.70
2023-02-13T02:45:19.287Z,6.70
2023-02-13T02:48:13.413Z,6.70
2023-02-13T02:50:52.945Z,6.70
2023-02-13T02:53:45.632Z,6.70
2023-02-13T02:56:38.216Z,6.70
2023-02-13T02:59:30.006Z,6.70
2023-02-13T03:02:20.593Z,6.70
2023-02-13T03:05:10.937Z,6.70
2023-02-13T03:07:45.939Z,6.70
2023-02-13T03:10:38.344Z,6.70
2023-02-13T03:13:29.323Z,6.70
2023-02-13T03:16:30.786Z,6.70
2023-02-13T03:26:10.241Z,6.60
2023-02-13T03:32:39.923Z,6.60
2023-02-13T03:36:05.446Z,6.70
2023-02-13T03:38:58.821Z,6.60
2023-02-13T03:41:52.317Z,6.70
2023-02-13T03:44:30.737Z,6.60
2023-02-13T03:47:05.176Z,6.60
2023-02-13T03:49:57.901Z,6.60
2023-02-13T03:52:32.436Z,6.70
2023-02-13T03:55:56.907Z,6.60
2023-02-13T03:59:17.459Z,6.70
2023-02-13T04:04:51.650Z,6.60
2023-02-13T04:13:18.122Z,6.70
2023-02-13T04:15:54.106Z,6.60
2023-02-13T04:18:29.940Z,6.70
2023-02-13T04:21:04.460Z,6.60
2023-02-13T04:23:36.883Z,6.60
2023-02-13T04:29:00.918Z,6.60
2023-02-13T04:31:34.875Z,6.60
2023-02-13T04:37:49.073Z,6.60
2023-02-13T04:48:09.138Z,6.60
2023-02-13T04:50:42.388Z,6.60
2023-02-13T04:56:54.716Z,6.60
2023-02-13T05:00:07.219Z,6.60
2023-02-13T05:02:56.683Z,6.60
2023-02-13T05:05:26.588Z,6.60
2023-02-13T05:07:57.096Z,6.50
2023-02-13T05:10:26.968Z,6.60
2023-02-13T05:13:52.017Z,6.60
2023-02-13T05:16:59.569Z,6.50
2023-02-13T05:19:51.809Z,6.60
2023-02-13T05:23:17.070Z,6.60
2023-02-13T05:25:47.705Z,6.50
2023-02-13T05:28:36.147Z,6.50
2023-02-13T05:34:48.404Z,6.50
2023-02-13T05:37:59.593Z,6.50
2023-02-13T05:40:33.913Z,6.50
2023-02-13T05:43:03.742Z,6.50
2023-02-13T05:45:33.023Z,6.50
2023-02-13T05:51:44.871Z,6.50
2023-02-13T05:54:16.892Z,6.50
2023-02-13T05:56:47.563Z,6.50
2023-02-13T05:59:16.310Z,6.50
2023-02-13T06:01:46.331Z,6.50
2023-02-13T06:04:15.269Z,6.50
2023-02-13T06:06:45.623Z,6.50
2023-02-13T06:09:14.778Z,6.50
2023-02-13T06:11:43.467Z,6.50
2023-02-13T06:14:14.829Z,6.50
2023-02-13T06:16:43.509Z,6.50
2023-02-13T06:19:12.468Z,6.50
2023-02-13T06:21:41.230Z,6.50
2023-02-13T06:24:10.223Z,6.50
2023-02-13T06:26:38.910Z,6.50
2023-02-13T06:29:09.366Z,6.50
2023-02-13T06:31:40.594Z,6.60
2023-02-13T06:34:10.421Z,6.50
2023-02-13T06:36:41.812Z,6.60
2023-02-13T06:39:48.650Z,6.50
2023-02-13T06:42:18.600Z,6.50
2023-02-13T06:44:47.632Z,6.50
2023-02-13T06:47:17.794Z,6.50
2023-02-13T06:49:47.045Z,6.50
2023-02-13T06:52:15.835Z,6.50
2023-02-13T06:54:47.983Z,6.60
2023-02-13T06:57:17.176Z,6.60
2023-02-13T06:59:45.900Z,6.60
2023-02-13T07:02:14.800Z,6.60
2023-02-13T07:04:44.728Z,6.60
2023-02-13T07:07:13.334Z,6.70
2023-02-13T07:09:42.306Z,6.70
2023-02-13T07:12:10.961Z,6.60
2023-02-13T07:14:39.548Z,6.70
2023-02-13T07:17:08.588Z,6.70
2023-02-13T07:19:37.197Z,6.70
2023-02-13T07:22:07.682Z,6.70
2023-02-13T07:24:38.688Z,6.70
2023-02-13T07:27:07.791Z,6.80
2023-02-13T07:29:36.513Z,6.70
2023-02-13T07:32:07.105Z,6.80
2023-02-13T07:34:36.028Z,6.80
2023-02-13T07:37:06.143Z,6.80
2023-02-13T07:39:37.265Z,6.80
2023-02-13T07:42:07.281Z,6.90
2023-02-13T07:44:36.043Z,6.90
2023-02-13T07:47:04.940Z,6.90
2023-02-13T07:49:34.526Z,6.90
2023-02-13T07:52:03.332Z,7.00
2023-02-13T07:54:33.581Z,6.90
2023-02-13T07:57:02.313Z,7.00
2023-02-13T07:59:31.247Z,7.00
2023-02-13T08:02:00.021Z,7.00
2023-02-13T08:04:28.724Z,7.10
2023-02-13T08:06:58.876Z,7.10
2023-02-13T08:09:45.527Z,7.10
2023-02-13T08:12:16.175Z,7.10
2023-02-13T08:14:44.992Z,7.10
2023-02-13T08:17:14.098Z,7.20
2023-02-13T08:19:43.813Z,7.20
2023-02-13T08:22:12.668Z,7.30
2023-02-13T08:24:41.457Z,7.30
2023-02-13T08:27:13.498Z,7.40
2023-02-13T08:29:44.539Z,7.40
2023-02-13T08:32:13.360Z,7.40
2023-02-13T08:34:42.563Z,7.50
2023-02-13T08:37:11.547Z,7.50
2023-02-13T08:39:40.178Z,7.60
2023-02-13T08:42:08.984Z,7.60
2023-02-13T08:44:41.119Z,7.70
2023-02-13T08:47:11.809Z,7.80
2023-02-13T08:49:40.435Z,7.80
2023-02-13T08:52:09.206Z,7.90
2023-02-13T08:54:38.020Z,7.90
2023-02-13T08:57:06.786Z,8.00
2023-02-13T08:59:35.600Z,8.00
2023-02-13T09:02:05.009Z,8.00
2023-02-13T09:04:35.360Z,8.10
2023-02-13T09:07:04.909Z,8.10
2023-02-13T09:09:33.809Z,8.20
2023-02-13T09:12:02.639Z,8.20
2023-02-13T09:14:31.551Z,8.30
2023-02-13T09:17:00.511Z,8.30
2023-02-13T09:19:31.249Z,8.30
2023-02-13T09:22:01.598Z,8.40
2023-02-13T09:24:31.156Z,8.40
2023-02-13T09:27:00.440Z,8.50
2023-02-13T09:29:32.300Z,8.50
2023-02-13T09:32:01.250Z,8.50
2023-02-13T09:34:29.917Z,8.50
2023-02-13T09:37:00.146Z,8.50
2023-02-13T09:39:29.141Z,8.60
2023-02-13T09:41:59.382Z,8.70
2023-02-13T09:44:35.147Z,8.70
2023-02-13T09:47:08.190Z,8.80
2023-02-13T09:49:42.610Z,8.80
2023-02-13T09:52:12.861Z,8.90
2023-02-13T09:54:43.132Z,8.90
2023-02-13T09:57:20.439Z,9.00
2023-02-13T09:59:58.249Z,9.00
2023-02-13T10:02:48.772Z,9.10
2023-02-13T10:05:32.920Z,9.10
2023-02-13T10:08:13.625Z,9.20
2023-02-13T10:10:52.423Z,9.20
2023-02-13T10:13:44.688Z,9.30
2023-02-13T10:16:18.540Z,9.20
2023-02-13T10:18:51.704Z,9.40
2023-02-13T10:21:22.624Z,9.40
2023-02-13T10:23:58.492Z,9.40
2023-02-13T10:26:42.731Z,9.40
2023-02-13T10:29:36.566Z,9.50
2023-02-13T10:32:10.072Z,9.60
2023-02-13T10:34:44.157Z,9.50
2023-02-13T10:37:18.810Z,9.50
2023-02-13T10:39:51.468Z,9.60
2023-02-13T10:42:24.009Z,9.60
2023-02-13T10:45:14.841Z,9.60
2023-02-13T10:48:00.227Z,9.60
2023-02-13T10:50:34.096Z,9.70
2023-02-13T10:53:13.297Z,9.80
2023-02-13T10:56:17.634Z,9.90
2023-02-13T10:58:58.531Z,9.90
2023-02-13T11:01:33.619Z,9.90
2023-02-13T11:04:08.058Z,10.00
2023-02-13T11:06:39.193Z,10.00
2023-02-13T11:09:08.644Z,10.10
2023-02-13T11:11:40.345Z,10.10
2023-02-13T11:14:14.694Z,10.20
2023-02-13T11:16:49.810Z,10.20
2023-02-13T11:19:21.592Z,10.30
2023-02-13T11:21:55.914Z,10.30
2023-02-13T11:24:26.607Z,10.30
2023-02-13T11:27:09.520Z,10.30
2023-02-13T11:29:52.160Z,10.20
2023-02-13T11:32:23.462Z,10.20
2023-02-13T11:34:54.775Z,10.30
2023-02-13T11:37:28.945Z,10.40
2023-02-13T11:40:00.313Z,10.40
2023-02-13T11:42:36.921Z,10.50
2023-02-13T11:45:08.202Z,10.50
2023-02-13T11:47:40.641Z,10.50
2023-02-13T11:50:23.902Z,10.40
2023-02-13T11:52:58.010Z,10.50
2023-02-13T11:55:34.181Z,10.50
2023-02-13T11:58:06.135Z,10.60
2023-02-13T12:00:40.152Z,10.60
2023-02-13T12:03:27.965Z,10.70
2023-02-13T12:06:05.947Z,10.80
2023-02-13T12:08:38.574Z,10.80
2023-02-13T12:11:16.245Z,10.60
2023-02-13T12:13:47.226Z,10.60
2023-02-13T12:16:23.847Z,10.70
2023-02-13T12:18:57.190Z,10.90
2023-02-13T12:21:42.161Z,10.90
2023-02-13T12:24:27.286Z,10.90
2023-02-13T12:27:01.187Z,11.00
2023-02-13T12:29:59.402Z,11.00
2023-02-13T12:32:39.216Z,11.10
2023-02-13T12:35:39.056Z,11.20
2023-02-13T12:38:17.644Z,11.10
2023-02-13T12:41:06.283Z,11.10
2023-02-13T12:43:55.549Z,11.00
2023-02-13T12:46:37.082Z,11.00
2023-02-13T12:49:23.747Z,11.10
2023-02-13T12:52:17.304Z,11.00
2023-02-13T12:55:00.425Z,10.70
2023-02-13T12:57:46.924Z,10.90
2023-02-13T13:00:31.716Z,11.20
2023-02-13T13:03:35.124Z,11.30
2023-02-13T13:06:26.957Z,11.40
2023-02-13T13:09:27.865Z,11.50
2023-02-13T13:12:19.712Z,11.60
2023-02-13T13:14:57.419Z,12.00
2023-02-13T13:17:44.821Z,12.00
2023-02-13T13:20:39.040Z,11.90
2023-02-13T13:23:12.376Z,11.40
2023-02-13T13:25:49.968Z,11.40
2023-02-13T13:28:23.352Z,11.50
2023-02-13T13:30:52.355Z,11.50
2023-02-13T13:33:22.989Z,11.60
2023-02-13T13:36:01.856Z,11.60
2023-02-13T13:38:53.337Z,11.80
2023-02-13T13:41:31.267Z,12.00
2023-02-13T13:44:07.812Z,11.90
2023-02-13T13:46:50.314Z,11.70
2023-02-13T13:49:35.375Z,11.70
2023-02-13T13:52:26.917Z,11.80
2023-02-13T13:54:56.867Z,11.90
2023-02-13T13:57:26.278Z,11.90
2023-02-13T14:00:15.928Z,11.90
2023-02-13T14:02:49.802Z,11.90
2023-02-13T14:05:28.359Z,11.90
2023-02-13T14:08:00.600Z,11.90
2023-02-13T14:11:01.735Z,12.10
2023-02-13T14:13:33.097Z,12.30
2023-02-13T14:16:02.353Z,12.00
2023-02-13T14:18:32.229Z,12.00
2023-02-13T14:21:03.014Z,12.10
2023-02-13T14:23:53.241Z,12.10
2023-02-13T14:26:57.954Z,12.00
2023-02-13T14:29:34.795Z,12.10
2023-02-13T14:32:08.065Z,12.10
2023-02-13T14:34:39.523Z,11.80
2023-02-13T14:37:24.635Z,12.00
2023-02-13T14:40:33.467Z,11.90
2023-02-13T14:43:19.040Z,12.00
2023-02-13T14:45:52.749Z,11.90
2023-02-13T14:48:23.495Z,11.80
2023-02-13T14:50:57.076Z,11.80
2023-02-13T14:53:29.877Z,11.60
2023-02-13T14:56:07.201Z,11.60
2023-02-13T14:58:39.717Z,11.80
2023-02-13T15:01:22.468Z,11.90
2023-02-13T15:03:56.115Z,12.00
2023-02-13T15:06:28.536Z,12.00
2023-02-13T15:09:00.728Z,11.90
2023-02-13T15:11:38.913Z,11.80
2023-02-13T15:14:21.174Z,11.80
2023-02-13T15:16:54.244Z,11.70
2023-02-13T15:19:24.764Z,11.50
2023-02-13T15:22:00.233Z,11.20
2023-02-13T15:24:33.620Z,11.30
2023-02-13T15:27:05.481Z,11.20
2023-02-13T15:29:48.928Z,11.30
2023-02-13T15:32:27.241Z,11.20
2023-02-13T15:34:56.481Z,11.00
2023-02-13T15:37:28.636Z,10.90
2023-02-13T15:39:57.461Z,10.80
2023-02-13T15:42:27.520Z,10.80
2023-02-13T15:44:58.832Z,10.70
2023-02-13T15:47:30.710Z,10.70
2023-02-13T15:49:59.701Z,10.70
2023-02-13T15:52:33.636Z,10.60
2023-02-13T15:55:02.484Z,10.50
2023-02-13T15:57:32.988Z,10.40
2023-02-13T16:00:02.610Z,10.40
2023-02-13T16:02:37.688Z,10.20
2023-02-13T16:05:08.016Z,10.10
2023-02-13T16:07:49.589Z,10.10
2023-02-13T16:10:19.785Z,9.90
2023-02-13T16:12:50.228Z,9.80
2023-02-13T16:15:21.510Z,9.70
2023-02-13T16:17:50.851Z,9.60
2023-02-13T16:20:22.797Z,9.50
2023-02-13T16:22:54.700Z,9.40
2023-02-13T16:25:26.462Z,9.30
2023-02-13T16:27:59.850Z,9.10
2023-02-13T16:30:35.142Z,9.00
2023-02-13T16:33:22.384Z,8.90
2023-02-13T16:35:52.168Z,8.80
2023-02-13T16:38:33.622Z,8.70
2023-02-13T16:41:04.401Z,8.60
2023-02-13T16:43:46.257Z,8.50
2023-02-13T16:46:33.635Z,8.40
2023-02-13T16:49:28.655Z,8.30
2023-02-13T16:52:01.275Z,8.20
2023-02-13T16:54:38.034Z,8.10
2023-02-13T16:57:18.741Z,8.00
2023-02-13T17:00:06.090Z,7.90
2023-02-13T17:02:37.078Z,7.80
2023-02-13T17:05:23.673Z,7.60
2023-02-13T17:07:54.751Z,7.50
2023-02-13T17:10:27.275Z,7.40
2023-02-13T17:12:57.313Z,7.30
2023-02-13T17:15:29.725Z,7.30
2023-02-13T17:17:59.068Z,7.10
2023-02-13T17:20:29.072Z,7.00
2023-02-13T17:22:59.505Z,7.00
2023-02-13T17:25:31.038Z,7.00
2023-02-13T17:28:02.019Z,6.90
2023-02-13T17:30:34.683Z,6.90
2023-02-13T17:33:07.725Z,6.80
2023-02-13T17:35:36.610Z,6.70
2023-02-13T17:38:06.291Z,6.70
2023-02-13T17:40:35.023Z,6.60
2023-02-13T17:43:04.736Z,6.50
2023-02-13T17:45:36.366Z,6.40
2023-02-13T17:48:06.165Z,6.40
2023-02-13T17:50:36.565Z,6.40
2023-02-13T17:53:08.234Z,6.40
2023-02-13T17:55:37.238Z,6.30
2023-02-13T17:58:05.939Z,6.20
2023-02-13T18:00:36.462Z,6.20
2023-02-13T18:03:05.480Z,6.10
2023-02-13T18:05:34.627Z,6.00
2023-02-13T18:08:03.469Z,6.00
2023-02-13T18:10:34.274Z,6.00
2023-02-13T18:13:05.192Z,5.90
2023-02-13T18:15:36.670Z,5.80
2023-02-13T18:18:05.800Z,5.80
2023-02-13T18:20:35.015Z,5.80
2023-02-13T18:23:03.783Z,5.70
2023-02-13T18:25:32.686Z,5.60
2023-02-13T18:28:01.329Z,5.60
2023-02-13T18:30:30.219Z,5.50
2023-02-13T18:33:04.977Z,5.50
2023-02-13T18:35:36.740Z,5.50
2023-02-13T18:38:05.790Z,5.40
2023-02-13T18:40:34.424Z,5.40
2023-02-13T18:43:03.203Z,5.30
2023-02-13T18:45:31.949Z,5.30
2023-02-13T18:48:03.054Z,5.30
2023-02-13T18:50:31.764Z,5.20
2023-02-13T18:53:00.983Z,5.20
2023-02-13T18:55:29.861Z,5.10
2023-02-13T18:57:59.501Z,5.10
2023-02-13T19:00:28.339Z,5.00
2023-02-13T19:03:00.039Z,5.00
2023-02-13T19:05:30.246Z,4.90
2023-02-13T19:08:00.764Z,4.90
2023-02-13T19:10:29.804Z,4.90
2023-02-13T19:12:58.487Z,4.90
2023-02-13T19:15:27.162Z,4.90
2023-02-13T19:17:57.598Z,4.80
2023-02-13T19:20:26.247Z,4.70
2023-02-13T19:22:56.751Z,4.60
2023-02-13T19:25:25.484Z,4.60
2023-02-13T19:27:54.179Z,4.60
2023-02-13T19:30:23.062Z,4.50
2023-02-13T19:32:51.824Z,4.50
2023-02-13T19:35:20.592Z,4.40
2023-02-13T19:37:49.335Z,4.40
2023-02-13T19:40:19.853Z,4.40
2023-02-13T19:42:48.577Z,4.30
2023-02-13T19:45:18.377Z,4.30
2023-02-13T19:47:48.107Z,4.40
2023-02-13T19:50:17.777Z,4.20
2023-02-13T19:52:46.839Z,4.20
2023-02-13T19:55:15.773Z,4.20
2023-02-13T19:57:45.923Z,4.20
2023-02-13T20:00:15.898Z,4.20
2023-02-13T20:02:44.661Z,4.20
2023-02-13T20:05:13.509Z,4.10
2023-02-13T20:07:42.199Z,4.10
2023-02-13T20:10:11.744Z,4.00
2023-02-13T20:12:40.798Z,4.00
2023-02-13T20:15:11.130Z,3.90
2023-02-13T20:17:40.026Z,3.90
2023-02-13T20:20:09.785Z,3.90
2023-02-13T20:22:38.429Z,3.80
2023-02-13T20:25:07.628Z,3.70
2023-02-13T20:27:42.048Z,3.60
2023-02-13T20:30:16.871Z,3.60
2023-02-13T20:32:45.687Z,3.50
2023-02-13T20:35:14.400Z,3.50
2023-02-13T20:37:43.477Z,3.50
2023-02-13T20:40:12.906Z,3.50
2023-02-13T20:42:41.635Z,3.60
2023-02-13T20:45:11.951Z,3.60
2023-02-13T20:47:42.877Z,3.60
2023-02-13T20:50:11.870Z,3.50
2023-02-13T20:52:40.571Z,3.40
2023-02-13T20:55:09.754Z,3.30
2023-02-13T20:57:38.780Z,3.30
2023-02-13T21:00:12.140Z,3.20
2023-02-13T21:02:42.199Z,3.20
2023-02-13T21:05:11.248Z,3.20
2023-02-13T21:07:40.198Z,3.20
2023-02-13T21:10:10.210Z,3.20
2023-02-13T21:12:38.932Z,3.20
2023-02-13T21:15:08.222Z,3.10
2023-02-13T21:17:36.855Z,3.10
2023-02-13T21:20:08.802Z,3.10
2023-02-13T21:22:37.534Z,3.10
2023-02-13T21:25:06.672Z,3.10
2023-02-13T21:27:44.433Z,3.10
2023-02-13T21:30:13.821Z,3.10
2023-02-13T21:32:42.465Z,3.00
2023-02-13T21:35:12.595Z,3.00
2023-02-13T21:37:41.429Z,3.10
2023-02-13T21:40:10.748Z,3.00
2023-02-13T21:42:39.510Z,2.90
2023-02-13T21:45:09.170Z,2.80
2023-02-13T21:47:38.060Z,2.80
2023-02-13T21:50:07.798Z,2.70
2023-02-13T21:52:37.715Z,2.70
2023-02-13T21:55:08.807Z,2.80
2023-02-13T21:57:37.592Z,2.80
2023-02-13T22:00:10.148Z,2.80
2023-02-13T22:02:39.786Z,2.80
2023-02-13T22:05:08.950Z,2.80
2023-02-13T22:07:52.961Z,2.60
2023-02-13T22:10:21.567Z,2.60
2023-02-13T22:12:53.343Z,2.60
2023-02-13T22:15:22.319Z,2.70
2023-02-13T22:17:50.953Z,2.60
2023-02-13T22:20:20.137Z,2.50
2023-02-13T22:22:50.233Z,2.50
2023-02-13T22:25:19.088Z,2.50
2023-02-13T22:27:48.526Z,2.40
2023-02-13T22:30:17.324Z,2.40
2023-02-13T22:32:46.185Z,2.40
2023-02-13T22:35:14.963Z,2.30
2023-02-13T22:37:43.624Z,2.30
2023-02-13T22:40:14.391Z,2.30
2023-02-13T22:42:42.975Z,2.20
2023-02-13T22:45:11.627Z,2.20
2023-02-13T22:47:40.279Z,2.10
2023-02-13T22:50:09.843Z,2.20
2023-02-13T22:52:38.679Z,2.20
2023-02-13T22:55:07.917Z,2.20
2023-02-13T22:57:37.994Z,2.20
2023-02-13T23:00:09.018Z,2.10
2023-02-13T23:02:37.995Z,2.10
2023-02-13T23:05:07.102Z,2.10
2023-02-13T23:07:36.492Z,2.10
2023-02-13T23:10:05.784Z,2.00
2023-02-13T23:12:36.229Z,2.00
2023-02-13T23:15:07.659Z,2.00
2023-02-13T23:17:53.548Z,2.00
2023-02-13T23:20:23.376Z,2.00
2023-02-13T23:22:54.005Z,1.90
2023-02-13T23:25:23.444Z,1.90
2023-02-13T23:27:53.746Z,1.90
2023-02-13T23:30:24.389Z,1.90
2023-02-13T23:32:53.138Z,1.90
2023-02-13T23:35:22.158Z,1.80
2023-02-13T23:37:50.778Z,1.80
2023-02-13T23:40:20.312Z,1.80
2023-02-13T23:42:48.917Z,1.80
2023-02-13T23:45:20.345Z,1.90
2023-02-13T23:47:50.323Z,1.80
2023-02-13T23:50:19.062Z,1.80
2023-02-13T23:52:50.859Z,1.80
2023-02-13T23:55:19.753Z,1.90
2023-02-13T23:57:52.037Z,1.80
